• pl
  • eng

Awiacja
TAF FT 10:55 30.04.2017
  • WIND
  • SIGNIFICANT EURO
  • SIGNIFICANT
  • SIGMET
  • AIRMET
  • TAF FC
  • TAF FT
  • METAR GG30
  • METAR GG00


TAF EPBY 300530Z 3006/0106 VRB02KT CAVOK
BECMG 3008/3010 09010KT=

TAF EPGD 300530Z 3006/0106 03003KT CAVOK
TEMPO 0100/0106 3000 BR=

TAF EPKK 300530Z 3006/0106 VRB02KT 4000 BR BKN040
TEMPO 3006/3008 2500 BR
BECMG 3008/3010 CAVOK
BECMG 3011/3013 06010KT=

TAF EPKT 300530Z 3006/0106 36004KT CAVOK
TEMPO 3006/3007 4000 BR
BECMG 3013/3015 09010KT=

TAF EPLL 300530Z 3006/0106 VRB03KT 4000 BR BKN004
TEMPO 3006/3007 0400 FG OVC002
BECMG 3007/3009 03010KT CAVOK
TEMPO 0100/0106 3000 BR BKN007=

TAF AMD EPMO 300853Z 3008/0106 02010KT 9999 BKN012
BECMG 3008/3010 BKN030
BECMG 3018/3020 08010KT=

TAF EPPO 300530Z 3006/0106 08008KT 9999 BKN008
BECMG 3006/3008 SCT025=

TAF EPRZ 300530Z 3006/0106 VRB02KT 4000 BR NSC
BECMG 3006/3008 CAVOK
BECMG 3008/3010 06010KT
PROB40 TEMPO 3010/3018 4000 SHRA BKN023CB=

TAF EPSC 300530Z 3006/0106 10008KT CAVOK=

TAF EPWA 300530Z 3006/0106 02010KT CAVOK
BECMG 3018/3020 08010KT=

TAF EPWR 300530Z 3006/0106 VRB02KT CAVOK
BECMG 3007/3010 08010KT=
Awiacja.imgw.pl jest pogodowym serwisem informacyjnym
Instytutu Meteorologii i Gospodarki Wodnej Państwowego Instytutu Badawczego.
Copyright IMGW PIB 2009-2011© Wszelkie prawa zastrzeżone.